sensor_id;sensor_type;location;lat;lon;timestamp;P1;durP1;ratioP1;P2;durP2;ratioP2
9276;SDS011;4676;42.678;23.244;2024-02-26T00:00:23;4.30;;;4.00;;
9276;SDS011;4676;42.678;23.244;2024-02-26T00:02:51;5.03;;;4.43;;
9276;SDS011;4676;42.678;23.244;2024-02-26T00:05:18;5.13;;;3.87;;
9276;SDS011;4676;42.678;23.244;2024-02-26T00:07:45;9.67;;;5.43;;
9276;SDS011;4676;42.678;23.244;2024-02-26T00:10:12;5.80;;;5.13;;
9276;SDS011;4676;42.678;23.244;2024-02-26T00:12:39;10.37;;;4.30;;
9276;SDS011;4676;42.678;23.244;2024-02-26T00:15:06;8.37;;;4.17;;
9276;SDS011;4676;42.678;23.244;2024-02-26T00:17:34;6.23;;;4.93;;
9276;SDS011;4676;42.678;23.244;2024-02-26T00:20:02;11.40;;;5.63;;
9276;SDS011;4676;42.678;23.244;2024-02-26T00:22:33;6.27;;;5.27;;
9276;SDS011;4676;42.678;23.244;2024-02-26T00:25:00;5.73;;;5.23;;
9276;SDS011;4676;42.678;23.244;2024-02-26T00:27:27;5.37;;;3.80;;
9276;SDS011;4676;42.678;23.244;2024-02-26T00:29:53;8.50;;;5.63;;
9276;SDS011;4676;42.678;23.244;2024-02-26T00:32:20;4.50;;;3.57;;
9276;SDS011;4676;42.678;23.244;2024-02-26T00:34:47;5.83;;;4.50;;
9276;SDS011;4676;42.678;23.244;2024-02-26T00:37:15;5.27;;;4.70;;
9276;SDS011;4676;42.678;23.244;2024-02-26T00:39:41;6.27;;;4.07;;
9276;SDS011;4676;42.678;23.244;2024-02-26T00:42:09;8.30;;;5.23;;
9276;SDS011;4676;42.678;23.244;2024-02-26T00:44:36;5.60;;;5.07;;
9276;SDS011;4676;42.678;23.244;2024-02-26T00:47:06;6.97;;;3.87;;
9276;SDS011;4676;42.678;23.244;2024-02-26T00:49:33;3.57;;;3.27;;
9276;SDS011;4676;42.678;23.244;2024-02-26T00:51:59;9.93;;;5.13;;
9276;SDS011;4676;42.678;23.244;2024-02-26T00:54:27;4.27;;;3.97;;
9276;SDS011;4676;42.678;23.244;2024-02-26T00:56:54;11.23;;;6.13;;
9276;SDS011;4676;42.678;23.244;2024-02-26T00:59:21;7.53;;;5.33;;
9276;SDS011;4676;42.678;23.244;2024-02-26T01:01:48;5.13;;;4.83;;
9276;SDS011;4676;42.678;23.244;2024-02-26T01:04:14;6.20;;;4.80;;
9276;SDS011;4676;42.678;23.244;2024-02-26T01:06:41;5.57;;;5.07;;
9276;SDS011;4676;42.678;23.244;2024-02-26T01:09:08;12.73;;;5.77;;
9276;SDS011;4676;42.678;23.244;2024-02-26T01:11:36;5.27;;;4.77;;
9276;SDS011;4676;42.678;23.244;2024-02-26T01:14:02;4.40;;;3.93;;
9276;SDS011;4676;42.678;23.244;2024-02-26T01:16:29;6.53;;;4.93;;
9276;SDS011;4676;42.678;23.244;2024-02-26T01:18:57;12.80;;;5.47;;
9276;SDS011;4676;42.678;23.244;2024-02-26T01:21:23;6.20;;;3.67;;
9276;SDS011;4676;42.678;23.244;2024-02-26T01:23:52;5.20;;;4.07;;
9276;SDS011;4676;42.678;23.244;2024-02-26T01:26:18;6.43;;;5.53;;
9276;SDS011;4676;42.678;23.244;2024-02-26T01:28:48;9.30;;;5.07;;
9276;SDS011;4676;42.678;23.244;2024-02-26T01:31:15;4.77;;;4.00;;
9276;SDS011;4676;42.678;23.244;2024-02-26T01:33:42;4.37;;;3.97;;
9276;SDS011;4676;42.678;23.244;2024-02-26T01:36:08;6.03;;;5.20;;
9276;SDS011;4676;42.678;23.244;2024-02-26T01:38:35;6.43;;;4.70;;
9276;SDS011;4676;42.678;23.244;2024-02-26T01:41:02;6.17;;;5.63;;
9276;SDS011;4676;42.678;23.244;2024-02-26T01:43:29;7.07;;;4.63;;
9276;SDS011;4676;42.678;23.244;2024-02-26T01:45:57;10.20;;;5.30;;
9276;SDS011;4676;42.678;23.244;2024-02-26T01:48:24;7.97;;;5.50;;
9276;SDS011;4676;42.678;23.244;2024-02-26T01:50:51;8.77;;;4.70;;
9276;SDS011;4676;42.678;23.244;2024-02-26T01:53:18;5.87;;;4.90;;
9276;SDS011;4676;42.678;23.244;2024-02-26T01:55:45;8.77;;;6.17;;
9276;SDS011;4676;42.678;23.244;2024-02-26T01:58:12;5.33;;;4.70;;
9276;SDS011;4676;42.678;23.244;2024-02-26T02:00:40;12.83;;;5.70;;
9276;SDS011;4676;42.678;23.244;2024-02-26T02:03:09;7.10;;;5.20;;
9276;SDS011;4676;42.678;23.244;2024-02-26T02:05:36;8.43;;;5.60;;
9276;SDS011;4676;42.678;23.244;2024-02-26T02:08:07;5.63;;;4.97;;
9276;SDS011;4676;42.678;23.244;2024-02-26T02:10:34;7.00;;;5.43;;
9276;SDS011;4676;42.678;23.244;2024-02-26T02:13:01;8.03;;;5.50;;
9276;SDS011;4676;42.678;23.244;2024-02-26T02:15:28;11.37;;;5.30;;
9276;SDS011;4676;42.678;23.244;2024-02-26T02:17:54;6.90;;;5.57;;
9276;SDS011;4676;42.678;23.244;2024-02-26T02:20:24;5.10;;;4.33;;
9276;SDS011;4676;42.678;23.244;2024-02-26T02:22:52;6.30;;;5.67;;
9276;SDS011;4676;42.678;23.244;2024-02-26T02:25:19;9.17;;;6.40;;
9276;SDS011;4676;42.678;23.244;2024-02-26T02:27:45;13.03;;;6.23;;
9276;SDS011;4676;42.678;23.244;2024-02-26T02:30:12;9.83;;;5.60;;
9276;SDS011;4676;42.678;23.244;2024-02-26T02:32:40;5.30;;;4.73;;
9276;SDS011;4676;42.678;23.244;2024-02-26T02:35:07;6.53;;;5.90;;
9276;SDS011;4676;42.678;23.244;2024-02-26T02:37:36;9.33;;;5.00;;
9276;SDS011;4676;42.678;23.244;2024-02-26T02:40:03;12.57;;;5.27;;
9276;SDS011;4676;42.678;23.244;2024-02-26T02:42:31;5.43;;;4.93;;
9276;SDS011;4676;42.678;23.244;2024-02-26T02:44:57;6.73;;;5.27;;
9276;SDS011;4676;42.678;23.244;2024-02-26T02:47:24;7.50;;;6.80;;
9276;SDS011;4676;42.678;23.244;2024-02-26T02:49:51;13.73;;;6.23;;
9276;SDS011;4676;42.678;23.244;2024-02-26T02:52:17;11.30;;;6.37;;
9276;SDS011;4676;42.678;23.244;2024-02-26T02:54:45;9.27;;;6.57;;
9276;SDS011;4676;42.678;23.244;2024-02-26T02:57:12;12.40;;;5.77;;
9276;SDS011;4676;42.678;23.244;2024-02-26T02:59:39;12.80;;;7.80;;
9276;SDS011;4676;42.678;23.244;2024-02-26T03:02:06;9.80;;;6.27;;
9276;SDS011;4676;42.678;23.244;2024-02-26T03:04:32;10.00;;;6.07;;
9276;SDS011;4676;42.678;23.244;2024-02-26T03:06:59;26.80;;;7.50;;
9276;SDS011;4676;42.678;23.244;2024-02-26T03:09:26;7.20;;;5.03;;
9276;SDS011;4676;42.678;23.244;2024-02-26T03:11:54;9.33;;;6.47;;
9276;SDS011;4676;42.678;23.244;2024-02-26T03:14:21;6.87;;;6.20;;
9276;SDS011;4676;42.678;23.244;2024-02-26T03:16:47;19.73;;;6.47;;
9276;SDS011;4676;42.678;23.244;2024-02-26T03:19:14;11.47;;;6.37;;
9276;SDS011;4676;42.678;23.244;2024-02-26T03:21:41;11.70;;;6.20;;
9276;SDS011;4676;42.678;23.244;2024-02-26T03:24:08;21.17;;;7.63;;
9276;SDS011;4676;42.678;23.244;2024-02-26T03:26:35;7.80;;;6.53;;
9276;SDS011;4676;42.678;23.244;2024-02-26T03:29:03;11.20;;;7.23;;
9276;SDS011;4676;42.678;23.244;2024-02-26T03:31:30;13.60;;;9.33;;
9276;SDS011;4676;42.678;23.244;2024-02-26T03:33:57;14.53;;;8.80;;
9276;SDS011;4676;42.678;23.244;2024-02-26T03:39:06;16.20;;;9.70;;
9276;SDS011;4676;42.678;23.244;2024-02-26T03:41:34;35.70;;;9.00;;
9276;SDS011;4676;42.678;23.244;2024-02-26T03:44:01;13.10;;;7.67;;
9276;SDS011;4676;42.678;23.244;2024-02-26T03:46:29;10.33;;;6.73;;
9276;SDS011;4676;42.678;23.244;2024-02-26T03:48:56;19.77;;;7.07;;
9276;SDS011;4676;42.678;23.244;2024-02-26T03:51:22;21.47;;;7.33;;
9276;SDS011;4676;42.678;23.244;2024-02-26T03:53:49;25.50;;;9.03;;
9276;SDS011;4676;42.678;23.244;2024-02-26T03:56:16;23.43;;;8.00;;
9276;SDS011;4676;42.678;23.244;2024-02-26T03:58:42;20.73;;;8.53;;
9276;SDS011;4676;42.678;23.244;2024-02-26T04:01:09;8.97;;;7.63;;
9276;SDS011;4676;42.678;23.244;2024-02-26T04:03:37;12.73;;;7.67;;
9276;SDS011;4676;42.678;23.244;2024-02-26T04:06:04;16.30;;;7.90;;
9276;SDS011;4676;42.678;23.244;2024-02-26T04:08:34;16.70;;;7.83;;
9276;SDS011;4676;42.678;23.244;2024-02-26T04:11:01;9.53;;;6.67;;
9276;SDS011;4676;42.678;23.244;2024-02-26T04:13:32;6.40;;;5.80;;
9276;SDS011;4676;42.678;23.244;2024-02-26T04:15:58;11.67;;;5.83;;
9276;SDS011;4676;42.678;23.244;2024-02-26T04:18:26;11.47;;;7.87;;
9276;SDS011;4676;42.678;23.244;2024-02-26T04:20:54;9.67;;;7.23;;
9276;SDS011;4676;42.678;23.244;2024-02-26T04:23:22;6.43;;;5.83;;
9276;SDS011;4676;42.678;23.244;2024-02-26T04:25:48;11.83;;;6.30;;
9276;SDS011;4676;42.678;23.244;2024-02-26T04:28:15;7.30;;;5.67;;
9276;SDS011;4676;42.678;23.244;2024-02-26T04:30:42;6.47;;;5.80;;
9276;SDS011;4676;42.678;23.244;2024-02-26T04:33:09;6.07;;;5.63;;
9276;SDS011;4676;42.678;23.244;2024-02-26T04:35:35;17.40;;;8.27;;
9276;SDS011;4676;42.678;23.244;2024-02-26T04:38:04;20.10;;;6.20;;
9276;SDS011;4676;42.678;23.244;2024-02-26T04:40:30;6.60;;;5.73;;
9276;SDS011;4676;42.678;23.244;2024-02-26T04:42:57;12.77;;;5.70;;
9276;SDS011;4676;42.678;23.244;2024-02-26T04:45:24;10.53;;;5.60;;
9276;SDS011;4676;42.678;23.244;2024-02-26T04:47:50;13.97;;;6.30;;
9276;SDS011;4676;42.678;23.244;2024-02-26T04:50:17;8.37;;;4.73;;
9276;SDS011;4676;42.678;23.244;2024-02-26T04:52:44;5.57;;;4.93;;
9276;SDS011;4676;42.678;23.244;2024-02-26T04:55:12;5.47;;;5.03;;
9276;SDS011;4676;42.678;23.244;2024-02-26T04:57:41;10.07;;;5.10;;
9276;SDS011;4676;42.678;23.244;2024-02-26T05:00:09;15.10;;;6.57;;
9276;SDS011;4676;42.678;23.244;2024-02-26T05:02:36;10.43;;;6.60;;
9276;SDS011;4676;42.678;23.244;2024-02-26T05:05:04;20.50;;;8.27;;
9276;SDS011;4676;42.678;23.244;2024-02-26T05:07:31;23.03;;;9.50;;
9276;SDS011;4676;42.678;23.244;2024-02-26T05:09:57;13.00;;;9.27;;
9276;SDS011;4676;42.678;23.244;2024-02-26T05:12:25;18.80;;;9.60;;
9276;SDS011;4676;42.678;23.244;2024-02-26T05:14:52;10.73;;;7.77;;
9276;SDS011;4676;42.678;23.244;2024-02-26T05:17:19;9.53;;;6.03;;
9276;SDS011;4676;42.678;23.244;2024-02-26T05:19:45;13.80;;;7.03;;
9276;SDS011;4676;42.678;23.244;2024-02-26T05:22:12;14.23;;;5.97;;
9276;SDS011;4676;42.678;23.244;2024-02-26T05:24:39;7.40;;;6.17;;
9276;SDS011;4676;42.678;23.244;2024-02-26T05:27:05;13.83;;;6.37;;
9276;SDS011;4676;42.678;23.244;2024-02-26T05:29:34;8.53;;;5.57;;
9276;SDS011;4676;42.678;23.244;2024-02-26T05:32:01;7.13;;;5.13;;
9276;SDS011;4676;42.678;23.244;2024-02-26T05:34:27;8.03;;;5.87;;
9276;SDS011;4676;42.678;23.244;2024-02-26T05:36:55;7.63;;;5.13;;
9276;SDS011;4676;42.678;23.244;2024-02-26T05:39:22;9.03;;;6.13;;
9276;SDS011;4676;42.678;23.244;2024-02-26T05:41:48;6.90;;;5.67;;
9276;SDS011;4676;42.678;23.244;2024-02-26T05:44:15;11.93;;;6.67;;
9276;SDS011;4676;42.678;23.244;2024-02-26T05:46:45;7.57;;;5.90;;
9276;SDS011;4676;42.678;23.244;2024-02-26T05:49:11;8.63;;;6.47;;
9276;SDS011;4676;42.678;23.244;2024-02-26T05:51:38;13.70;;;7.13;;
9276;SDS011;4676;42.678;23.244;2024-02-26T05:54:05;16.63;;;7.17;;
9276;SDS011;4676;42.678;23.244;2024-02-26T05:56:33;10.13;;;6.70;;
9276;SDS011;4676;42.678;23.244;2024-02-26T05:59:00;9.40;;;6.30;;
9276;SDS011;4676;42.678;23.244;2024-02-26T06:01:26;9.17;;;6.70;;
9276;SDS011;4676;42.678;23.244;2024-02-26T06:03:54;11.53;;;6.83;;
9276;SDS011;4676;42.678;23.244;2024-02-26T06:06:22;5.23;;;4.73;;
9276;SDS011;4676;42.678;23.244;2024-02-26T06:08:49;7.50;;;5.57;;
9276;SDS011;4676;42.678;23.244;2024-02-26T06:11:15;10.43;;;7.23;;
9276;SDS011;4676;42.678;23.244;2024-02-26T06:13:42;11.23;;;7.17;;
9276;SDS011;4676;42.678;23.244;2024-02-26T06:16:09;11.43;;;6.93;;
9276;SDS011;4676;42.678;23.244;2024-02-26T06:18:36;8.10;;;6.67;;
9276;SDS011;4676;42.678;23.244;2024-02-26T06:21:04;6.83;;;5.63;;
9276;SDS011;4676;42.678;23.244;2024-02-26T06:23:31;8.33;;;5.17;;
9276;SDS011;4676;42.678;23.244;2024-02-26T06:25:57;8.33;;;5.40;;
9276;SDS011;4676;42.678;23.244;2024-02-26T06:28:24;8.27;;;5.53;;
9276;SDS011;4676;42.678;23.244;2024-02-26T06:30:51;12.37;;;7.10;;
9276;SDS011;4676;42.678;23.244;2024-02-26T06:33:17;12.87;;;7.67;;
9276;SDS011;4676;42.678;23.244;2024-02-26T06:35:44;14.10;;;7.23;;
9276;SDS011;4676;42.678;23.244;2024-02-26T06:38:12;19.47;;;6.67;;
9276;SDS011;4676;42.678;23.244;2024-02-26T06:40:39;8.33;;;7.43;;
9276;SDS011;4676;42.678;23.244;2024-02-26T06:43:06;10.17;;;7.30;;
9276;SDS011;4676;42.678;23.244;2024-02-26T06:45:32;10.83;;;7.50;;
9276;SDS011;4676;42.678;23.244;2024-02-26T06:47:59;11.40;;;6.93;;
9276;SDS011;4676;42.678;23.244;2024-02-26T06:50:26;14.60;;;7.73;;
9276;SDS011;4676;42.678;23.244;2024-02-26T06:52:52;8.77;;;6.90;;
9276;SDS011;4676;42.678;23.244;2024-02-26T06:55:21;7.33;;;5.97;;
9276;SDS011;4676;42.678;23.244;2024-02-26T06:57:47;11.17;;;7.57;;
9276;SDS011;4676;42.678;23.244;2024-02-26T07:00:14;10.20;;;6.10;;
9276;SDS011;4676;42.678;23.244;2024-02-26T07:02:42;18.57;;;7.23;;
9276;SDS011;4676;42.678;23.244;2024-02-26T07:05:08;9.53;;;5.53;;
9276;SDS011;4676;42.678;23.244;2024-02-26T07:07:35;11.10;;;6.10;;
9276;SDS011;4676;42.678;23.244;2024-02-26T07:10:02;9.33;;;5.70;;
9276;SDS011;4676;42.678;23.244;2024-02-26T07:12:32;8.87;;;5.77;;
9276;SDS011;4676;42.678;23.244;2024-02-26T07:14:59;7.10;;;5.37;;
9276;SDS011;4676;42.678;23.244;2024-02-26T07:17:25;8.20;;;6.43;;
9276;SDS011;4676;42.678;23.244;2024-02-26T07:19:52;13.27;;;7.50;;
9276;SDS011;4676;42.678;23.244;2024-02-26T07:22:19;8.57;;;6.93;;
9276;SDS011;4676;42.678;23.244;2024-02-26T07:24:45;9.10;;;6.90;;
9276;SDS011;4676;42.678;23.244;2024-02-26T07:27:12;12.93;;;7.60;;
9276;SDS011;4676;42.678;23.244;2024-02-26T07:29:40;11.80;;;6.70;;
9276;SDS011;4676;42.678;23.244;2024-02-26T07:32:07;10.67;;;7.63;;
9276;SDS011;4676;42.678;23.244;2024-02-26T07:34:34;7.97;;;5.50;;
9276;SDS011;4676;42.678;23.244;2024-02-26T07:37:02;11.13;;;7.27;;
9276;SDS011;4676;42.678;23.244;2024-02-26T07:39:29;13.50;;;8.53;;
9276;SDS011;4676;42.678;23.244;2024-02-26T07:41:56;15.93;;;7.40;;
9276;SDS011;4676;42.678;23.244;2024-02-26T07:44:23;10.43;;;7.13;;
9276;SDS011;4676;42.678;23.244;2024-02-26T07:46:51;9.83;;;6.97;;
9276;SDS011;4676;42.678;23.244;2024-02-26T07:49:17;11.97;;;7.73;;
9276;SDS011;4676;42.678;23.244;2024-02-26T07:51:45;13.70;;;7.37;;
9276;SDS011;4676;42.678;23.244;2024-02-26T07:54:11;11.37;;;6.93;;
9276;SDS011;4676;42.678;23.244;2024-02-26T07:56:38;11.13;;;7.17;;
9276;SDS011;4676;42.678;23.244;2024-02-26T07:59:05;6.73;;;5.77;;
9276;SDS011;4676;42.678;23.244;2024-02-26T08:01:31;9.80;;;5.40;;
9276;SDS011;4676;42.678;23.244;2024-02-26T08:04:01;8.53;;;7.20;;
9276;SDS011;4676;42.678;23.244;2024-02-26T08:06:27;14.63;;;7.57;;
9276;SDS011;4676;42.678;23.244;2024-02-26T08:08:54;7.23;;;6.63;;
9276;SDS011;4676;42.678;23.244;2024-02-26T08:11:21;14.97;;;8.70;;
9276;SDS011;4676;42.678;23.244;2024-02-26T08:13:47;10.80;;;7.57;;
9276;SDS011;4676;42.678;23.244;2024-02-26T08:16:14;18.77;;;8.93;;
9276;SDS011;4676;42.678;23.244;2024-02-26T08:18:41;13.03;;;10.00;;
9276;SDS011;4676;42.678;23.244;2024-02-26T08:21:09;28.97;;;10.60;;
9276;SDS011;4676;42.678;23.244;2024-02-26T08:23:35;19.43;;;11.43;;
9276;SDS011;4676;42.678;23.244;2024-02-26T08:26:02;16.23;;;11.20;;
9276;SDS011;4676;42.678;23.244;2024-02-26T08:28:32;16.37;;;10.60;;
9276;SDS011;4676;42.678;23.244;2024-02-26T08:30:58;10.67;;;8.43;;
9276;SDS011;4676;42.678;23.244;2024-02-26T08:33:25;26.83;;;12.67;;
9276;SDS011;4676;42.678;23.244;2024-02-26T08:35:53;16.47;;;8.83;;
9276;SDS011;4676;42.678;23.244;2024-02-26T08:38:21;13.00;;;9.97;;
9276;SDS011;4676;42.678;23.244;2024-02-26T08:40:48;11.70;;;7.83;;
9276;SDS011;4676;42.678;23.244;2024-02-26T08:43:15;36.07;;;8.13;;
9276;SDS011;4676;42.678;23.244;2024-02-26T08:45:41;12.33;;;8.10;;
9276;SDS011;4676;42.678;23.244;2024-02-26T08:48:08;13.17;;;8.23;;
9276;SDS011;4676;42.678;23.244;2024-02-26T08:50:35;9.50;;;7.37;;
9276;SDS011;4676;42.678;23.244;2024-02-26T08:53:01;13.07;;;7.73;;
9276;SDS011;4676;42.678;23.244;2024-02-26T08:55:30;17.93;;;7.27;;
9276;SDS011;4676;42.678;23.244;2024-02-26T08:57:57;14.77;;;7.73;;
9276;SDS011;4676;42.678;23.244;2024-02-26T09:00:24;11.30;;;7.67;;
9276;SDS011;4676;42.678;23.244;2024-02-26T09:02:50;11.13;;;7.30;;
9276;SDS011;4676;42.678;23.244;2024-02-26T09:05:17;7.67;;;6.80;;
9276;SDS011;4676;42.678;23.244;2024-02-26T09:07:44;9.67;;;7.40;;
9276;SDS011;4676;42.678;23.244;2024-02-26T09:10:11;11.93;;;7.60;;
9276;SDS011;4676;42.678;23.244;2024-02-26T09:12:39;10.70;;;8.17;;
9276;SDS011;4676;42.678;23.244;2024-02-26T09:15:06;8.40;;;7.60;;
9276;SDS011;4676;42.678;23.244;2024-02-26T09:17:34;8.53;;;7.07;;
9276;SDS011;4676;42.678;23.244;2024-02-26T09:20:01;23.77;;;8.70;;
9276;SDS011;4676;42.678;23.244;2024-02-26T09:22:28;13.33;;;8.20;;
9276;SDS011;4676;42.678;23.244;2024-02-26T09:24:55;9.57;;;6.97;;
9276;SDS011;4676;42.678;23.244;2024-02-26T09:27:22;10.30;;;7.20;;
9276;SDS011;4676;42.678;23.244;2024-02-26T09:29:50;15.93;;;7.97;;
9276;SDS011;4676;42.678;23.244;2024-02-26T09:32:17;12.13;;;7.77;;
9276;SDS011;4676;42.678;23.244;2024-02-26T09:34:44;8.97;;;8.00;;
9276;SDS011;4676;42.678;23.244;2024-02-26T09:37:10;7.43;;;6.73;;
9276;SDS011;4676;42.678;23.244;2024-02-26T09:39:37;9.23;;;6.83;;
9276;SDS011;4676;42.678;23.244;2024-02-26T09:42:05;9.50;;;7.60;;
9276;SDS011;4676;42.678;23.244;2024-02-26T09:44:34;10.77;;;7.37;;
9276;SDS011;4676;42.678;23.244;2024-02-26T09:47:04;11.70;;;7.40;;
9276;SDS011;4676;42.678;23.244;2024-02-26T09:49:34;16.03;;;8.27;;
9276;SDS011;4676;42.678;23.244;2024-02-26T09:52:02;11.20;;;7.53;;
9276;SDS011;4676;42.678;23.244;2024-02-26T09:54:30;9.83;;;6.50;;
9276;SDS011;4676;42.678;23.244;2024-02-26T09:56:57;7.20;;;6.07;;
9276;SDS011;4676;42.678;23.244;2024-02-26T09:59:36;9.37;;;6.30;;
9276;SDS011;4676;42.678;23.244;2024-02-26T10:02:08;7.77;;;5.43;;
9276;SDS011;4676;42.678;23.244;2024-02-26T10:04:37;12.60;;;7.67;;
9276;SDS011;4676;42.678;23.244;2024-02-26T10:07:05;10.57;;;5.30;;
9276;SDS011;4676;42.678;23.244;2024-02-26T10:09:36;9.77;;;4.57;;
9276;SDS011;4676;42.678;23.244;2024-02-26T10:12:03;6.83;;;6.23;;
9276;SDS011;4676;42.678;23.244;2024-02-26T10:14:31;11.47;;;5.30;;
9276;SDS011;4676;42.678;23.244;2024-02-26T10:16:57;2.00;;;1.90;;
9276;SDS011;4676;42.678;23.244;2024-02-26T10:19:27;2.90;;;2.70;;
9276;SDS011;4676;42.678;23.244;2024-02-26T10:21:59;2.23;;;1.90;;
9276;SDS011;4676;42.678;23.244;2024-02-26T10:24:28;2.63;;;2.43;;
9276;SDS011;4676;42.678;23.244;2024-02-26T10:26:55;1.77;;;1.57;;
9276;SDS011;4676;42.678;23.244;2024-02-26T10:29:23;4.80;;;2.20;;
9276;SDS011;4676;42.678;23.244;2024-02-26T10:31:51;1.90;;;1.73;;
9276;SDS011;4676;42.678;23.244;2024-02-26T10:34:18;1.67;;;1.57;;
9276;SDS011;4676;42.678;23.244;2024-02-26T10:36:47;6.90;;;1.90;;
9276;SDS011;4676;42.678;23.244;2024-02-26T10:39:13;2.00;;;1.90;;
9276;SDS011;4676;42.678;23.244;2024-02-26T10:41:41;1.90;;;1.80;;
9276;SDS011;4676;42.678;23.244;2024-02-26T10:44:08;2.57;;;1.80;;
9276;SDS011;4676;42.678;23.244;2024-02-26T10:46:37;1.57;;;1.53;;
9276;SDS011;4676;42.678;23.244;2024-02-26T10:49:04;2.23;;;1.77;;
9276;SDS011;4676;42.678;23.244;2024-02-26T10:51:33;1.67;;;1.57;;
9276;SDS011;4676;42.678;23.244;2024-02-26T10:54:05;2.13;;;2.03;;
9276;SDS011;4676;42.678;23.244;2024-02-26T10:56:34;1.93;;;1.83;;
9276;SDS011;4676;42.678;23.244;2024-02-26T10:59:04;2.00;;;1.90;;
9276;SDS011;4676;42.678;23.244;2024-02-26T11:01:34;1.63;;;1.53;;
9276;SDS011;4676;42.678;23.244;2024-02-26T11:04:03;6.43;;;1.77;;
9276;SDS011;4676;42.678;23.244;2024-02-26T11:06:31;2.10;;;2.00;;
9276;SDS011;4676;42.678;23.244;2024-02-26T11:08:59;8.90;;;1.60;;
9276;SDS011;4676;42.678;23.244;2024-02-26T11:11:29;1.47;;;1.37;;
9276;SDS011;4676;42.678;23.244;2024-02-26T11:13:56;3.03;;;2.17;;
9276;SDS011;4676;42.678;23.244;2024-02-26T11:16:25;3.13;;;1.70;;
9276;SDS011;4676;42.678;23.244;2024-02-26T11:18:53;2.83;;;2.47;;
9276;SDS011;4676;42.678;23.244;2024-02-26T11:21:21;1.80;;;1.70;;
9276;SDS011;4676;42.678;23.244;2024-02-26T11:23:52;3.53;;;1.83;;
9276;SDS011;4676;42.678;23.244;2024-02-26T11:26:19;2.10;;;1.97;;
9276;SDS011;4676;42.678;23.244;2024-02-26T11:28:50;2.83;;;1.90;;
9276;SDS011;4676;42.678;23.244;2024-02-26T11:31:18;2.50;;;1.80;;
9276;SDS011;4676;42.678;23.244;2024-02-26T11:33:52;1.87;;;1.70;;
9276;SDS011;4676;42.678;23.244;2024-02-26T11:36:19;2.03;;;1.83;;
9276;SDS011;4676;42.678;23.244;2024-02-26T11:38:46;2.07;;;1.97;;
9276;SDS011;4676;42.678;23.244;2024-02-26T11:41:16;1.40;;;1.33;;
9276;SDS011;4676;42.678;23.244;2024-02-26T11:43:51;5.40;;;2.53;;
9276;SDS011;4676;42.678;23.244;2024-02-26T11:46:24;3.03;;;2.73;;
9276;SDS011;4676;42.678;23.244;2024-02-26T11:48:53;2.40;;;2.20;;
9276;SDS011;4676;42.678;23.244;2024-02-26T11:51:24;2.17;;;1.50;;
9276;SDS011;4676;42.678;23.244;2024-02-26T11:53:52;2.47;;;2.33;;
9276;SDS011;4676;42.678;23.244;2024-02-26T11:56:22;2.10;;;2.00;;
9276;SDS011;4676;42.678;23.244;2024-02-26T12:01:40;4.93;;;2.27;;
9276;SDS011;4676;42.678;23.244;2024-02-26T12:04:13;2.27;;;2.07;;
9276;SDS011;4676;42.678;23.244;2024-02-26T12:06:45;2.10;;;2.00;;
9276;SDS011;4676;42.678;23.244;2024-02-26T12:09:36;1.73;;;1.63;;
9276;SDS011;4676;42.678;23.244;2024-02-26T12:12:04;1.50;;;1.40;;
9276;SDS011;4676;42.678;23.244;2024-02-26T12:14:34;2.93;;;1.60;;
9276;SDS011;4676;42.678;23.244;2024-02-26T12:17:03;2.23;;;1.40;;
9276;SDS011;4676;42.678;23.244;2024-02-26T12:19:32;1.63;;;1.53;;
9276;SDS011;4676;42.678;23.244;2024-02-26T12:22:00;2.23;;;1.50;;
9276;SDS011;4676;42.678;23.244;2024-02-26T12:24:26;1.90;;;1.80;;
9276;SDS011;4676;42.678;23.244;2024-02-26T12:26:53;1.63;;;1.40;;
9276;SDS011;4676;42.678;23.244;2024-02-26T12:29:20;1.33;;;1.17;;
9276;SDS011;4676;42.678;23.244;2024-02-26T12:31:48;1.70;;;1.40;;
9276;SDS011;4676;42.678;23.244;2024-02-26T12:34:15;2.33;;;2.07;;
9276;SDS011;4676;42.678;23.244;2024-02-26T12:36:42;1.27;;;1.20;;
9276;SDS011;4676;42.678;23.244;2024-02-26T12:39:08;2.20;;;1.33;;
9276;SDS011;4676;42.678;23.244;2024-02-26T12:41:37;1.63;;;1.53;;
9276;SDS011;4676;42.678;23.244;2024-02-26T12:44:04;1.60;;;1.50;;
9276;SDS011;4676;42.678;23.244;2024-02-26T12:46:32;1.83;;;1.73;;
9276;SDS011;4676;42.678;23.244;2024-02-26T12:49:00;2.07;;;1.77;;
9276;SDS011;4676;42.678;23.244;2024-02-26T12:51:27;2.03;;;1.60;;
9276;SDS011;4676;42.678;23.244;2024-02-26T12:53:55;5.27;;;1.20;;
9276;SDS011;4676;42.678;23.244;2024-02-26T12:56:22;1.73;;;1.63;;
9276;SDS011;4676;42.678;23.244;2024-02-26T12:58:50;1.50;;;1.40;;
9276;SDS011;4676;42.678;23.244;2024-02-26T13:01:19;3.60;;;1.73;;
9276;SDS011;4676;42.678;23.244;2024-02-26T13:03:48;1.37;;;1.37;;
9276;SDS011;4676;42.678;23.244;2024-02-26T13:06:16;1.53;;;1.43;;
9276;SDS011;4676;42.678;23.244;2024-02-26T13:08:44;2.13;;;2.00;;
9276;SDS011;4676;42.678;23.244;2024-02-26T13:11:11;1.70;;;1.60;;
9276;SDS011;4676;42.678;23.244;2024-02-26T13:13:38;2.70;;;1.67;;
9276;SDS011;4676;42.678;23.244;2024-02-26T13:16:06;7.57;;;1.37;;
9276;SDS011;4676;42.678;23.244;2024-02-26T13:18:33;1.60;;;1.50;;
9276;SDS011;4676;42.678;23.244;2024-02-26T13:21:08;1.47;;;1.43;;
9276;SDS011;4676;42.678;23.244;2024-02-26T13:23:37;1.73;;;1.63;;
9276;SDS011;4676;42.678;23.244;2024-02-26T13:26:05;2.33;;;1.83;;
9276;SDS011;4676;42.678;23.244;2024-02-26T13:28:31;2.83;;;1.40;;
9276;SDS011;4676;42.678;23.244;2024-02-26T13:30:58;1.27;;;1.20;;
9276;SDS011;4676;42.678;23.244;2024-02-26T13:33:26;1.53;;;1.43;;
9276;SDS011;4676;42.678;23.244;2024-02-26T13:35:54;1.67;;;1.57;;
9276;SDS011;4676;42.678;23.244;2024-02-26T13:38:21;1.63;;;1.53;;
9276;SDS011;4676;42.678;23.244;2024-02-26T13:40:51;1.90;;;1.80;;
9276;SDS011;4676;42.678;23.244;2024-02-26T13:43:18;1.30;;;1.20;;
9276;SDS011;4676;42.678;23.244;2024-02-26T13:45:46;1.60;;;1.50;;
9276;SDS011;4676;42.678;23.244;2024-02-26T13:48:13;1.43;;;1.10;;
9276;SDS011;4676;42.678;23.244;2024-02-26T13:53:47;1.70;;;1.60;;
9276;SDS011;4676;42.678;23.244;2024-02-26T13:56:16;1.53;;;1.47;;
9276;SDS011;4676;42.678;23.244;2024-02-26T13:58:44;6.57;;;1.40;;
9276;SDS011;4676;42.678;23.244;2024-02-26T14:01:11;1.43;;;1.40;;
9276;SDS011;4676;42.678;23.244;2024-02-26T14:03:38;1.63;;;1.53;;
9276;SDS011;4676;42.678;23.244;2024-02-26T14:12:42;1.47;;;1.37;;
9276;SDS011;4676;42.678;23.244;2024-02-26T14:15:10;1.20;;;1.20;;
9276;SDS011;4676;42.678;23.244;2024-02-26T14:17:38;9.07;;;1.90;;
9276;SDS011;4676;42.678;23.244;2024-02-26T14:20:05;1.87;;;1.70;;
9276;SDS011;4676;42.678;23.244;2024-02-26T14:22:34;1.57;;;1.47;;
9276;SDS011;4676;42.678;23.244;2024-02-26T14:25:01;2.20;;;2.03;;
9276;SDS011;4676;42.678;23.244;2024-02-26T14:27:27;5.43;;;1.73;;
9276;SDS011;4676;42.678;23.244;2024-02-26T14:29:55;3.43;;;1.60;;
9276;SDS011;4676;42.678;23.244;2024-02-26T14:32:22;1.37;;;1.27;;
9276;SDS011;4676;42.678;23.244;2024-02-26T14:34:49;3.83;;;1.70;;
9276;SDS011;4676;42.678;23.244;2024-02-26T14:37:15;1.60;;;1.07;;
9276;SDS011;4676;42.678;23.244;2024-02-26T14:39:42;2.90;;;1.77;;
9276;SDS011;4676;42.678;23.244;2024-02-26T14:42:09;1.53;;;1.53;;
9276;SDS011;4676;42.678;23.244;2024-02-26T14:44:36;1.73;;;1.63;;
9276;SDS011;4676;42.678;23.244;2024-02-26T14:47:04;1.07;;;1.00;;
9276;SDS011;4676;42.678;23.244;2024-02-26T14:49:31;1.80;;;1.60;;
9276;SDS011;4676;42.678;23.244;2024-02-26T14:51:57;2.67;;;2.47;;
9276;SDS011;4676;42.678;23.244;2024-02-26T14:54:24;2.03;;;1.70;;
9276;SDS011;4676;42.678;23.244;2024-02-26T14:56:51;4.03;;;1.50;;
9276;SDS011;4676;42.678;23.244;2024-02-26T14:59:18;1.50;;;1.40;;
9276;SDS011;4676;42.678;23.244;2024-02-26T15:01:44;1.70;;;1.60;;
9276;SDS011;4676;42.678;23.244;2024-02-26T15:04:12;1.63;;;1.53;;
9276;SDS011;4676;42.678;23.244;2024-02-26T15:06:39;1.77;;;1.67;;
9276;SDS011;4676;42.678;23.244;2024-02-26T15:09:06;1.30;;;1.20;;
9276;SDS011;4676;42.678;23.244;2024-02-26T15:11:33;1.13;;;1.13;;